Terminal Aerodrome Forecast
Issued by NWS

Home | Current Version | Previous Version | Text Only | Print | Product List | Glossary On
Versions: 1 2 3 4 5 6 7 8 9 10 11 12
000
FTUS43 KJKL 132300
TAFSME
TAF
KSME 132332Z 1400/1424 VRB03KT P6SM SCT035
     FM141800 32004KT P6SM SCT030 SCT080 SCT250
      AMD NOT SKED=

USA.gov is the U.S. government's official web portal to all federal, state and local government web resources and services.